createdAt,value
2023-06-01T00:00:15.193Z,0.00
2023-06-01T00:01:15.149Z,0.00
2023-06-01T00:02:15.151Z,0.00
2023-06-01T00:03:15.317Z,0.00
2023-06-01T00:04:15.139Z,0.00
2023-06-01T00:05:15.090Z,0.00
2023-06-01T00:06:15.094Z,0.00
2023-06-01T00:07:15.054Z,0.00
2023-06-01T00:08:15.043Z,0.00
2023-06-01T00:09:15.028Z,0.00
2023-06-01T00:10:15.023Z,0.00
2023-06-01T00:11:15.012Z,0.00
2023-06-01T00:12:14.986Z,0.00
2023-06-01T00:13:14.989Z,0.00
2023-06-01T00:14:14.968Z,0.00
2023-06-01T00:15:14.958Z,0.00
2023-06-01T00:16:14.990Z,0.00
2023-06-01T00:17:14.923Z,0.00
2023-06-01T00:18:14.934Z,0.00
2023-06-01T00:19:14.883Z,0.00
2023-06-01T00:20:14.903Z,0.00
2023-06-01T00:21:14.861Z,0.00
2023-06-01T00:22:14.865Z,0.00
2023-06-01T00:23:14.845Z,0.00
2023-06-01T00:24:14.851Z,0.00
2023-06-01T00:25:15.048Z,0.00
2023-06-01T00:26:14.790Z,0.00
2023-06-01T00:27:14.787Z,0.00
2023-06-01T00:28:14.770Z,0.00
2023-06-01T00:29:14.765Z,0.00
2023-06-01T00:30:14.763Z,0.00
2023-06-01T00:31:14.744Z,0.00
2023-06-01T00:32:14.716Z,0.00
2023-06-01T00:33:14.781Z,0.00
2023-06-01T00:34:14.709Z,0.00
2023-06-01T00:35:14.685Z,0.00
2023-06-01T00:36:14.668Z,0.00
2023-06-01T00:37:14.664Z,0.00
2023-06-01T00:38:14.640Z,0.00
2023-06-01T00:39:14.652Z,0.00
2023-06-01T00:40:14.620Z,0.00
2023-06-01T00:41:14.604Z,0.00
2023-06-01T00:42:14.594Z,0.00
2023-06-01T00:43:14.580Z,0.00
2023-06-01T00:44:14.571Z,0.00
2023-06-01T00:45:14.543Z,0.00
2023-06-01T00:46:14.530Z,0.00
2023-06-01T00:47:14.592Z,0.00
2023-06-01T00:48:14.533Z,0.00
2023-06-01T00:49:14.491Z,0.00
2023-06-01T00:50:14.490Z,0.00
2023-06-01T00:51:14.458Z,0.00
2023-06-01T00:52:14.465Z,0.00
2023-06-01T00:53:14.462Z,0.00
2023-06-01T00:54:14.415Z,0.00
2023-06-01T00:55:14.415Z,0.00
2023-06-01T00:56:14.398Z,0.00
2023-06-01T00:57:14.399Z,0.00
2023-06-01T00:58:14.371Z,0.00
2023-06-01T00:59:14.352Z,0.00
2023-06-01T01:00:14.335Z,0.00
2023-06-01T01:01:14.367Z,0.00
2023-06-01T01:02:14.345Z,0.00
2023-06-01T01:03:14.345Z,0.00
2023-06-01T01:04:14.381Z,0.00
2023-06-01T01:05:14.274Z,0.00
2023-06-01T01:06:14.270Z,0.00
2023-06-01T01:07:14.257Z,0.00
2023-06-01T01:08:14.226Z,0.00
2023-06-01T01:09:14.217Z,0.00
2023-06-01T01:10:14.224Z,0.00
2023-06-01T01:11:14.242Z,0.00
2023-06-01T01:12:14.208Z,0.00
2023-06-01T01:13:14.166Z,0.00
2023-06-01T01:14:14.164Z,0.00
2023-06-01T01:15:14.162Z,0.00
2023-06-01T01:16:14.135Z,0.00
2023-06-01T01:17:14.138Z,0.00
2023-06-01T01:18:14.095Z,0.00
2023-06-01T01:19:37.553Z,0.00
2023-06-01T01:20:14.069Z,0.00
2023-06-01T01:21:14.072Z,0.00
2023-06-01T01:22:14.041Z,0.00
2023-06-01T01:23:14.050Z,0.00
2023-06-01T01:24:14.033Z,0.00
2023-06-01T01:25:14.057Z,0.00
2023-06-01T01:26:14.019Z,0.00
2023-06-01T01:27:13.981Z,0.00
2023-06-01T01:28:14.009Z,0.00
2023-06-01T01:29:14.001Z,0.00
2023-06-01T01:30:13.997Z,0.00
2023-06-01T01:31:14.104Z,0.00
2023-06-01T01:32:13.992Z,0.00
2023-06-01T01:33:13.902Z,0.00
2023-06-01T01:34:13.906Z,0.00
2023-06-01T01:35:13.896Z,0.00
2023-06-01T01:36:13.864Z,0.00
2023-06-01T01:37:13.858Z,0.00
2023-06-01T01:38:13.839Z,0.00
2023-06-01T01:39:13.829Z,0.00
2023-06-01T01:40:13.818Z,0.00
2023-06-01T01:41:13.793Z,0.00
2023-06-01T01:42:13.783Z,0.00
2023-06-01T01:43:13.774Z,0.00
2023-06-01T01:44:13.784Z,0.00
2023-06-01T01:45:13.762Z,0.00
2023-06-01T01:46:13.732Z,0.00
2023-06-01T01:47:13.781Z,0.00
2023-06-01T01:48:13.735Z,0.00
2023-06-01T01:49:13.706Z,0.00
2023-06-01T01:50:13.715Z,0.00
2023-06-01T01:51:13.685Z,0.00
2023-06-01T01:52:13.659Z,0.00
2023-06-01T01:53:13.633Z,0.00
2023-06-01T01:54:13.642Z,0.00
2023-06-01T01:55:13.622Z,0.00
2023-06-01T01:56:13.590Z,0.00
2023-06-01T01:57:13.586Z,0.00
2023-06-01T01:58:13.564Z,0.00
2023-06-01T01:59:13.584Z,0.00
2023-06-01T02:00:13.552Z,0.00
2023-06-01T02:01:13.542Z,0.00
2023-06-01T02:02:13.564Z,0.00
2023-06-01T02:03:13.583Z,0.00
2023-06-01T02:04:13.500Z,0.00
2023-06-01T02:05:13.485Z,0.00
2023-06-01T02:06:13.469Z,0.00
2023-06-01T02:07:13.450Z,0.00
2023-06-01T02:08:13.450Z,0.00
2023-06-01T02:09:13.430Z,0.00
2023-06-01T02:10:13.414Z,0.00
2023-06-01T02:11:13.410Z,0.00
2023-06-01T02:12:13.383Z,0.00
2023-06-01T02:13:13.406Z,0.00
2023-06-01T02:14:13.361Z,0.00
2023-06-01T02:15:13.348Z,0.00
2023-06-01T02:16:13.380Z,0.00
2023-06-01T02:17:13.322Z,0.00
2023-06-01T02:18:13.333Z,0.00
2023-06-01T02:19:13.286Z,0.00
2023-06-01T02:20:13.295Z,0.00
2023-06-01T02:21:13.268Z,0.00
2023-06-01T02:22:13.271Z,0.00
2023-06-01T02:23:13.256Z,0.00
2023-06-01T02:24:13.216Z,0.00
2023-06-01T02:25:13.205Z,0.00
2023-06-01T02:26:13.214Z,0.00
2023-06-01T02:27:13.192Z,0.00
2023-06-01T02:28:13.175Z,0.00
2023-06-01T02:29:13.158Z,4.00
2023-06-01T02:30:13.162Z,4.00
2023-06-01T02:31:13.154Z,0.00
2023-06-01T02:32:13.141Z,0.00
2023-06-01T02:33:13.222Z,4.00
2023-06-01T02:34:13.110Z,0.00
2023-06-01T02:35:13.075Z,4.00
2023-06-01T02:36:13.097Z,4.00
2023-06-01T02:37:13.067Z,4.00
2023-06-01T02:38:13.053Z,4.00
2023-06-01T02:39:13.011Z,4.00
2023-06-01T02:40:13.016Z,4.00
2023-06-01T02:41:13.009Z,4.00
2023-06-01T02:42:13.028Z,8.00
2023-06-01T02:43:12.957Z,8.00
2023-06-01T02:44:12.963Z,8.00
2023-06-01T02:45:12.953Z,12.00
2023-06-01T02:46:12.998Z,12.00
2023-06-01T02:47:12.915Z,12.00
2023-06-01T02:48:12.904Z,16.00
2023-06-01T02:49:12.902Z,16.00
2023-06-01T02:50:12.886Z,20.00
2023-06-01T02:51:12.885Z,24.00
2023-06-01T02:52:12.867Z,24.00
2023-06-01T02:53:12.843Z,28.00
2023-06-01T02:54:12.833Z,32.00
2023-06-01T02:55:12.849Z,32.00
2023-06-01T02:56:12.821Z,36.00
2023-06-01T02:57:12.769Z,40.00
2023-06-01T02:58:12.780Z,44.00
2023-06-01T02:59:12.765Z,52.00
2023-06-01T03:00:12.769Z,56.00
2023-06-01T03:01:12.885Z,64.00
2023-06-01T03:02:12.721Z,72.00
2023-06-01T03:03:12.710Z,72.00
2023-06-01T03:04:12.739Z,80.00
2023-06-01T03:05:12.695Z,88.00
2023-06-01T03:06:12.686Z,100.00
2023-06-01T03:07:12.659Z,104.00
2023-06-01T03:08:12.648Z,112.00
2023-06-01T03:09:12.636Z,124.00
2023-06-01T03:10:12.634Z,132.00
2023-06-01T03:11:12.591Z,144.00
2023-06-01T03:12:12.600Z,156.00
2023-06-01T03:13:12.576Z,168.00
2023-06-01T03:14:12.634Z,180.00
2023-06-01T03:15:12.544Z,200.00
2023-06-01T03:16:12.598Z,216.00
2023-06-01T03:17:12.520Z,228.00
2023-06-01T03:18:12.619Z,244.00
2023-06-01T03:19:12.493Z,260.00
2023-06-01T03:20:12.495Z,276.00
2023-06-01T03:21:12.490Z,296.00
2023-06-01T03:22:12.471Z,316.00
2023-06-01T03:23:12.422Z,332.00
2023-06-01T03:24:12.442Z,352.00
2023-06-01T03:25:12.412Z,372.00
2023-06-01T03:26:12.412Z,388.00
2023-06-01T03:27:12.374Z,408.00
2023-06-01T03:28:12.397Z,432.00
2023-06-01T03:29:12.378Z,456.00
2023-06-01T03:30:12.377Z,480.00
2023-06-01T03:31:12.376Z,500.00
2023-06-01T03:32:12.340Z,528.00
2023-06-01T03:33:12.336Z,552.00
2023-06-01T03:34:12.289Z,576.00
2023-06-01T03:35:12.287Z,604.00
2023-06-01T03:36:12.292Z,632.00
2023-06-01T03:37:12.262Z,660.00
2023-06-01T03:38:12.246Z,688.00
2023-06-01T03:39:12.233Z,716.00
2023-06-01T03:40:12.256Z,744.00
2023-06-01T03:41:12.189Z,772.00
2023-06-01T03:42:12.205Z,804.00
2023-06-01T03:43:12.184Z,836.00
2023-06-01T03:44:12.165Z,864.00
2023-06-01T03:45:12.155Z,896.00
2023-06-01T03:46:12.160Z,924.00
2023-06-01T03:47:12.136Z,952.00
2023-06-01T03:48:12.168Z,980.00
2023-06-01T03:49:12.129Z,1004.00
2023-06-01T03:50:12.095Z,1032.00
2023-06-01T03:51:12.059Z,1064.00
2023-06-01T03:52:12.092Z,1100.00
2023-06-01T03:53:12.038Z,1140.00
2023-06-01T03:54:12.039Z,1180.00
2023-06-01T03:55:12.079Z,1216.00
2023-06-01T03:56:12.016Z,1248.00
2023-06-01T03:57:11.985Z,1284.00
2023-06-01T03:58:11.992Z,1324.00
2023-06-01T03:59:11.961Z,1368.00
2023-06-01T04:00:11.954Z,1416.00
2023-06-01T04:01:11.947Z,1472.00
2023-06-01T04:02:11.984Z,1532.00
2023-06-01T04:03:11.927Z,1620.00
2023-06-01T04:04:11.958Z,1752.00
2023-06-01T04:05:11.884Z,2204.00
2023-06-01T04:06:11.885Z,4052.00
2023-06-01T04:07:11.850Z,6268.00
2023-06-01T04:08:11.858Z,6948.00
2023-06-01T04:09:11.829Z,6892.00
2023-06-01T04:10:11.817Z,8368.00
2023-06-01T04:11:11.825Z,15296.00
2023-06-01T04:12:11.793Z,19712.00
2023-06-01T04:13:11.799Z,16256.00
2023-06-01T04:14:11.761Z,11180.00
2023-06-01T04:15:11.729Z,11504.00
2023-06-01T04:16:11.819Z,11104.00
2023-06-01T04:17:11.752Z,11168.00
2023-06-01T04:18:11.726Z,11424.00
2023-06-01T04:19:13.110Z,11552.00
2023-06-01T04:20:12.635Z,20000.00
2023-06-01T04:21:11.665Z,25536.00
2023-06-01T04:22:11.643Z,18432.00
2023-06-01T04:23:11.652Z,10608.00
2023-06-01T04:24:13.791Z,8400.00
2023-06-01T04:25:11.608Z,14272.00
2023-06-01T04:26:11.603Z,23648.00
2023-06-01T04:27:11.580Z,24576.00
2023-06-01T04:28:13.396Z,18272.00
2023-06-01T04:29:11.554Z,16224.00
2023-06-01T04:30:11.565Z,22656.00
2023-06-01T04:31:11.520Z,21920.00
2023-06-01T04:32:11.610Z,15392.00
2023-06-01T04:33:11.571Z,11360.00
2023-06-01T04:34:11.512Z,13536.00
2023-06-01T04:35:11.540Z,25312.00
2023-06-01T04:36:11.453Z,34688.00
2023-06-01T04:37:11.452Z,33472.00
2023-06-01T04:38:11.447Z,22208.00
2023-06-01T04:39:11.424Z,14016.00
2023-06-01T04:40:11.473Z,14880.00
2023-06-01T04:41:11.396Z,22720.00
2023-06-01T04:42:11.383Z,25184.00
2023-06-01T04:43:11.371Z,18848.00
2023-06-01T04:44:11.375Z,13184.00
2023-06-01T04:45:11.590Z,16224.00
2023-06-01T04:46:11.388Z,27200.00
2023-06-01T04:47:11.317Z,25888.00
2023-06-01T04:48:11.386Z,17248.00
2023-06-01T04:49:11.280Z,14688.00
2023-06-01T04:50:11.272Z,18016.00
2023-06-01T04:51:11.249Z,29824.00
2023-06-01T04:52:11.245Z,41984.00
2023-06-01T04:53:11.244Z,44576.00
2023-06-01T04:54:11.237Z,30112.00
2023-06-01T04:55:11.222Z,13504.00
2023-06-01T04:56:11.196Z,11316.00
2023-06-01T04:57:11.201Z,21216.00
2023-06-01T04:58:11.188Z,35712.00
2023-06-01T04:59:11.149Z,37504.00
2023-06-01T05:00:11.147Z,24800.00
2023-06-01T05:01:11.156Z,18080.00
2023-06-01T05:02:11.127Z,21632.00
2023-06-01T05:03:11.167Z,22528.00
2023-06-01T05:04:11.177Z,24288.00
2023-06-01T05:05:11.182Z,31328.00
2023-06-01T05:06:11.064Z,29600.00
2023-06-01T05:07:11.081Z,20480.00
2023-06-01T05:08:11.037Z,28448.00
2023-06-01T05:09:11.036Z,37472.00
2023-06-01T05:10:11.016Z,31392.00
2023-06-01T05:11:11.021Z,20128.00
2023-06-01T05:12:11.072Z,16320.00
2023-06-01T05:13:10.963Z,21760.00
2023-06-01T05:14:10.969Z,42368.00
2023-06-01T05:15:10.956Z,55904.00
2023-06-01T05:16:11.021Z,53440.00
2023-06-01T05:17:10.921Z,35200.00
2023-06-01T05:18:10.954Z,19392.00
2023-06-01T05:19:10.892Z,17664.00
2023-06-01T05:20:10.903Z,30464.00
2023-06-01T05:21:10.874Z,45248.00
2023-06-01T05:22:10.877Z,48832.00
2023-06-01T05:23:10.845Z,34720.00
2023-06-01T05:24:10.848Z,25856.00
2023-06-01T05:25:10.857Z,24736.00
2023-06-01T05:26:10.832Z,24896.00
2023-06-01T05:27:10.800Z,24480.00
2023-06-01T05:28:10.782Z,26368.00
2023-06-01T05:29:10.779Z,18752.00
2023-06-01T05:30:10.784Z,15392.00
2023-06-01T05:31:10.766Z,17184.00
2023-06-01T05:32:10.727Z,17632.00
2023-06-01T05:33:10.832Z,13728.00
2023-06-01T05:34:10.703Z,12288.00
2023-06-01T05:35:10.700Z,13664.00
2023-06-01T05:36:10.694Z,13376.00
2023-06-01T05:37:10.657Z,11904.00
2023-06-01T05:38:10.641Z,15520.00
2023-06-01T05:39:10.625Z,16608.00
2023-06-01T05:40:10.668Z,13792.00
2023-06-01T05:41:10.602Z,12928.00
2023-06-01T05:42:10.593Z,12384.00
2023-06-01T05:43:10.572Z,13312.00
2023-06-01T05:44:10.594Z,15360.00
2023-06-01T05:45:10.596Z,19328.00
2023-06-01T05:46:10.585Z,14048.00
2023-06-01T05:47:10.571Z,12736.00
2023-06-01T05:48:10.600Z,12024.00
2023-06-01T05:49:10.564Z,11832.00
2023-06-01T05:50:10.494Z,11792.00
2023-06-01T05:51:10.536Z,12788.00
2023-06-01T05:52:10.473Z,13060.00
2023-06-01T05:53:10.467Z,13368.00
2023-06-01T05:54:10.464Z,12768.00
2023-06-01T05:55:10.458Z,11272.00
2023-06-01T05:56:10.440Z,11256.00
2023-06-01T05:57:10.420Z,12036.00
2023-06-01T05:58:10.411Z,12312.00
2023-06-01T05:59:10.383Z,12744.00
2023-06-01T06:00:10.373Z,12380.00
2023-06-01T06:01:10.372Z,11872.00
2023-06-01T06:02:10.434Z,11856.00
2023-06-01T06:03:10.414Z,12340.00
2023-06-01T06:04:10.414Z,15296.00
2023-06-01T06:05:10.386Z,15936.00
2023-06-01T06:06:10.332Z,15552.00
2023-06-01T06:07:10.259Z,15936.00
2023-06-01T06:08:10.314Z,17920.00
2023-06-01T06:09:10.243Z,16768.00
2023-06-01T06:10:10.248Z,22112.00
2023-06-01T06:11:10.234Z,28512.00
2023-06-01T06:12:10.226Z,23424.00
2023-06-01T06:13:10.207Z,28832.00
2023-06-01T06:14:10.308Z,33312.00
2023-06-01T06:15:10.265Z,29600.00
2023-06-01T06:16:10.185Z,30816.00
2023-06-01T06:17:10.175Z,40416.00
2023-06-01T06:18:10.204Z,32416.00
2023-06-01T06:19:10.112Z,38240.00
2023-06-01T06:20:10.136Z,52768.00
2023-06-01T06:21:10.110Z,57632.00
2023-06-01T06:22:10.185Z,37440.00
2023-06-01T06:23:10.114Z,37760.00
2023-06-01T06:24:10.096Z,33824.00
2023-06-01T06:25:10.062Z,42784.00
2023-06-01T06:26:10.037Z,67872.00
2023-06-01T06:27:11.140Z,66432.00
2023-06-01T06:28:10.078Z,47168.00
2023-06-01T06:29:10.032Z,34752.00
2023-06-01T06:30:10.016Z,33760.00
2023-06-01T06:31:09.980Z,38560.00
2023-06-01T06:32:09.993Z,59552.00
2023-06-01T06:33:13.567Z,69536.00
2023-06-01T06:34:10.949Z,39328.00
2023-06-01T06:35:09.910Z,31008.00
2023-06-01T06:36:09.912Z,32416.00
2023-06-01T06:37:09.902Z,45504.00
2023-06-01T06:38:09.953Z,61600.00
2023-06-01T06:39:09.885Z,57792.00
2023-06-01T06:40:09.851Z,37376.00
2023-06-01T06:41:09.886Z,29696.00
2023-06-01T06:42:09.895Z,22368.00
2023-06-01T06:43:09.820Z,19872.00
2023-06-01T06:44:09.793Z,10848.00
2023-06-01T06:45:09.799Z,9632.00
2023-06-01T06:46:09.924Z,8524.00
2023-06-01T06:47:09.797Z,7532.00
2023-06-01T06:48:09.767Z,6852.00
2023-06-01T06:49:09.735Z,6248.00
2023-06-01T06:50:09.748Z,5948.00
2023-06-01T06:51:09.804Z,5784.00
2023-06-01T06:52:09.733Z,5708.00
2023-06-01T06:53:09.695Z,5672.00
2023-06-01T06:54:09.669Z,5632.00
2023-06-01T06:55:09.683Z,5596.00
2023-06-01T06:56:09.658Z,5572.00
2023-06-01T06:57:09.634Z,5580.00
2023-06-01T06:58:09.620Z,5568.00
2023-06-01T06:59:09.608Z,5568.00
2023-06-01T07:00:09.663Z,5564.00
2023-06-01T07:01:09.638Z,5572.00
2023-06-01T07:02:09.580Z,5548.00
2023-06-01T07:03:09.758Z,5460.00
2023-06-01T07:04:09.649Z,5376.00
2023-06-01T07:05:09.553Z,5400.00
2023-06-01T07:06:09.599Z,5336.00
2023-06-01T07:07:09.513Z,5192.00
2023-06-01T07:08:09.502Z,5392.00
2023-06-01T07:09:09.572Z,5408.00
2023-06-01T07:10:09.477Z,5424.00
2023-06-01T07:11:09.524Z,5560.00
2023-06-01T07:12:09.486Z,5604.00
2023-06-01T07:13:09.474Z,5604.00
2023-06-01T07:14:09.425Z,5612.00
2023-06-01T07:15:09.464Z,5620.00
2023-06-01T07:16:09.520Z,5384.00
2023-06-01T07:17:09.574Z,5624.00
2023-06-01T07:18:09.652Z,5704.00
2023-06-01T07:19:09.542Z,5760.00
2023-06-01T07:20:09.364Z,5804.00
2023-06-01T07:21:09.333Z,5816.00
2023-06-01T07:22:09.298Z,5800.00
2023-06-01T07:23:09.297Z,5776.00
2023-06-01T07:24:09.344Z,5732.00
2023-06-01T07:25:09.294Z,5692.00
2023-06-01T07:26:09.252Z,5660.00
2023-06-01T07:27:09.251Z,5616.00
2023-06-01T07:28:09.401Z,5552.00
2023-06-01T07:29:09.242Z,5448.00
2023-06-01T07:30:09.206Z,5372.00
2023-06-01T07:31:09.351Z,5312.00
2023-06-01T07:32:09.363Z,5240.00
2023-06-01T07:33:09.379Z,5044.00
2023-06-01T07:34:09.168Z,4996.00
2023-06-01T07:35:09.155Z,4848.00
2023-06-01T07:36:09.142Z,4852.00
2023-06-01T07:37:17.823Z,4580.00
2023-06-01T07:38:10.129Z,5100.00
2023-06-01T07:39:09.090Z,5156.00
2023-06-01T07:40:09.186Z,5160.00
2023-06-01T07:41:09.069Z,5172.00
2023-06-01T07:42:09.053Z,5160.00
2023-06-01T07:43:09.072Z,5140.00
2023-06-01T07:44:09.038Z,5096.00
2023-06-01T07:45:09.018Z,5072.00
2023-06-01T07:46:09.068Z,5056.00
2023-06-01T07:47:09.001Z,5000.00
2023-06-01T07:48:11.002Z,4912.00
2023-06-01T07:49:08.958Z,4916.00
2023-06-01T07:50:08.988Z,4908.00
2023-06-01T07:51:08.948Z,4872.00
2023-06-01T07:52:08.921Z,4736.00
2023-06-01T07:53:08.908Z,4764.00
2023-06-01T07:54:08.907Z,4836.00
2023-06-01T07:55:08.930Z,4800.00
2023-06-01T07:56:08.878Z,4764.00
2023-06-01T07:57:08.879Z,4740.00
2023-06-01T07:58:08.871Z,4712.00
2023-06-01T07:59:08.869Z,4704.00
2023-06-01T08:00:08.821Z,4672.00
2023-06-01T08:01:08.834Z,4636.00
2023-06-01T08:02:08.836Z,4600.00
2023-06-01T08:03:08.864Z,4532.00
2023-06-01T08:04:08.754Z,4376.00
2023-06-01T08:05:08.777Z,4492.00
2023-06-01T08:06:08.761Z,4452.00
2023-06-01T08:07:08.732Z,4428.00
2023-06-01T08:08:08.711Z,4384.00
2023-06-01T08:09:08.721Z,4352.00
2023-06-01T08:10:08.689Z,4324.00
2023-06-01T08:11:08.696Z,4308.00
2023-06-01T08:12:08.663Z,4288.00
2023-06-01T08:13:08.670Z,4260.00
2023-06-01T08:14:08.676Z,4232.00
2023-06-01T08:15:08.636Z,4200.00
2023-06-01T08:16:08.610Z,4164.00
2023-06-01T08:17:08.826Z,4140.00
2023-06-01T08:18:08.607Z,4120.00
2023-06-01T08:19:08.584Z,4028.00
2023-06-01T08:20:08.621Z,4036.00
2023-06-01T08:21:08.577Z,4056.00
2023-06-01T08:22:08.860Z,4052.00
2023-06-01T08:23:08.524Z,4028.00
2023-06-01T08:24:08.503Z,4020.00
2023-06-01T08:25:08.527Z,4024.00
2023-06-01T08:26:08.476Z,3996.00
2023-06-01T08:27:08.523Z,4000.00
2023-06-01T08:28:08.472Z,3980.00
2023-06-01T08:29:08.488Z,3980.00
2023-06-01T08:30:08.519Z,3964.00
2023-06-01T08:31:08.528Z,3940.00
2023-06-01T08:32:08.475Z,3940.00
2023-06-01T08:33:08.517Z,3928.00
2023-06-01T08:34:08.419Z,3908.00
2023-06-01T08:35:08.377Z,3892.00
2023-06-01T08:36:08.409Z,3864.00
2023-06-01T08:37:08.347Z,3852.00
2023-06-01T08:38:08.367Z,3832.00
2023-06-01T08:39:08.445Z,3816.00
2023-06-01T08:40:08.318Z,3800.00
2023-06-01T08:41:08.357Z,3784.00
2023-06-01T08:42:10.203Z,3776.00
2023-06-01T08:43:08.281Z,3764.00
2023-06-01T08:44:08.273Z,3716.00
2023-06-01T08:45:08.252Z,3752.00
2023-06-01T08:46:08.227Z,3812.00
2023-06-01T08:47:08.282Z,3800.00
2023-06-01T08:48:08.232Z,3768.00
2023-06-01T08:49:08.214Z,3696.00
2023-06-01T08:50:08.171Z,3548.00
2023-06-01T08:51:08.168Z,3452.00
2023-06-01T08:52:08.145Z,3800.00
2023-06-01T08:53:08.207Z,3812.00
2023-06-01T08:54:08.130Z,3836.00
2023-06-01T08:55:08.120Z,3844.00
2023-06-01T08:56:08.096Z,3848.00
2023-06-01T08:57:08.129Z,3864.00
2023-06-01T08:58:08.094Z,3864.00
2023-06-01T08:59:08.062Z,3856.00
2023-06-01T09:00:08.070Z,3852.00
2023-06-01T09:01:08.057Z,3828.00
2023-06-01T09:02:08.025Z,3784.00
2023-06-01T09:03:08.271Z,3720.00
2023-06-01T09:04:08.024Z,3816.00
2023-06-01T09:05:08.001Z,3808.00
2023-06-01T09:06:07.983Z,3808.00
2023-06-01T09:07:08.019Z,3508.00
2023-06-01T09:08:07.956Z,3588.00
2023-06-01T09:09:08.099Z,3752.00
2023-06-01T09:10:08.105Z,3632.00
2023-06-01T09:11:07.907Z,3656.00
2023-06-01T09:12:07.910Z,3688.00
2023-06-01T09:13:07.899Z,3744.00
2023-06-01T09:14:07.861Z,3608.00
2023-06-01T09:15:07.886Z,3392.00
2023-06-01T09:16:07.858Z,3552.00
2023-06-01T09:17:07.935Z,3596.00
2023-06-01T09:18:08.011Z,3320.00
2023-06-01T09:19:07.804Z,3612.00
2023-06-01T09:20:07.807Z,3708.00
2023-06-01T09:21:07.793Z,3804.00
2023-06-01T09:22:07.834Z,3780.00
2023-06-01T09:23:07.760Z,3740.00
2023-06-01T09:24:07.726Z,3672.00
2023-06-01T09:25:07.735Z,3452.00
2023-06-01T09:26:07.730Z,3372.00
2023-06-01T09:27:07.711Z,3272.00
2023-06-01T09:28:07.687Z,3348.00
2023-06-01T09:29:07.697Z,3260.00
2023-06-01T09:30:07.669Z,3464.00
2023-06-01T09:31:07.697Z,3932.00
2023-06-01T09:32:07.649Z,4012.00
2023-06-01T09:33:07.675Z,4168.00
2023-06-01T09:34:07.607Z,4324.00
2023-06-01T09:35:07.611Z,4228.00
2023-06-01T09:36:07.596Z,3828.00
2023-06-01T09:37:07.579Z,3776.00
2023-06-01T09:38:07.567Z,3596.00
2023-06-01T09:39:07.545Z,3460.00
2023-06-01T09:40:07.546Z,3532.00
2023-06-01T09:41:07.537Z,3544.00
2023-06-01T09:42:07.515Z,3724.00
2023-06-01T09:43:07.514Z,3832.00
2023-06-01T09:44:07.482Z,3868.00
2023-06-01T09:45:07.493Z,4188.00
2023-06-01T09:46:07.492Z,4308.00
2023-06-01T09:47:07.598Z,4288.00
2023-06-01T09:48:07.486Z,4132.00
2023-06-01T09:49:07.451Z,4220.00
2023-06-01T09:50:07.417Z,4276.00
2023-06-01T09:51:07.397Z,4396.00
2023-06-01T09:52:07.442Z,4212.00
2023-06-01T09:53:07.389Z,3764.00
2023-06-01T09:54:07.377Z,3640.00
2023-06-01T09:55:07.342Z,3656.00
2023-06-01T09:56:07.321Z,3620.00
2023-06-01T09:57:11.419Z,3404.00
2023-06-01T09:58:07.312Z,3448.00
2023-06-01T09:59:07.329Z,3476.00
2023-06-01T10:00:07.312Z,3308.00
2023-06-01T10:01:07.295Z,3436.00
2023-06-01T10:02:07.388Z,3844.00
2023-06-01T10:03:07.422Z,4332.00
2023-06-01T10:04:07.454Z,4576.00
2023-06-01T10:05:07.225Z,4652.00
2023-06-01T10:06:07.198Z,4628.00
2023-06-01T10:07:07.191Z,4468.00
2023-06-01T10:08:07.194Z,4400.00
2023-06-01T10:09:07.151Z,4196.00
2023-06-01T10:10:07.146Z,3612.00
2023-06-01T10:11:07.195Z,3908.00
2023-06-01T10:12:07.118Z,3844.00
2023-06-01T10:13:07.140Z,3472.00
2023-06-01T10:14:07.094Z,4116.00
2023-06-01T10:15:20.654Z,4200.00
2023-06-01T10:16:08.181Z,4020.00
2023-06-01T10:17:07.062Z,3432.00
2023-06-01T10:18:07.103Z,3184.00
2023-06-01T10:19:07.058Z,3404.00
2023-06-01T10:20:07.017Z,3324.00
2023-06-01T10:21:07.006Z,3068.00
2023-06-01T10:22:07.033Z,2968.00
2023-06-01T10:23:09.263Z,3268.00
2023-06-01T10:24:08.020Z,3804.00
2023-06-01T10:25:06.971Z,3932.00
2023-06-01T10:26:06.956Z,3728.00
2023-06-01T10:27:06.953Z,3192.00
2023-06-01T10:28:06.919Z,3428.00
2023-06-01T10:29:06.909Z,3360.00
2023-06-01T10:30:06.881Z,3596.00
2023-06-01T10:31:06.893Z,3644.00
2023-06-01T10:32:07.047Z,3292.00
2023-06-01T10:33:06.936Z,3248.00
2023-06-01T10:34:06.853Z,3488.00
2023-06-01T10:35:06.851Z,3540.00
2023-06-01T10:36:06.844Z,3316.00
2023-06-01T10:37:06.807Z,2612.00
2023-06-01T10:38:06.781Z,2656.00
2023-06-01T10:39:06.789Z,2832.00
2023-06-01T10:40:06.762Z,2836.00
2023-06-01T10:41:06.773Z,3208.00
2023-06-01T10:42:06.733Z,3584.00
2023-06-01T10:43:06.755Z,3672.00
2023-06-01T10:44:06.723Z,3656.00
2023-06-01T10:45:06.697Z,3536.00
2023-06-01T10:46:06.801Z,3600.00
2023-06-01T10:47:06.692Z,3676.00
2023-06-01T10:48:06.665Z,3688.00
2023-06-01T10:49:06.668Z,3688.00
2023-06-01T10:50:06.662Z,3704.00
2023-06-01T10:51:06.625Z,3716.00
2023-06-01T10:52:06.603Z,3688.00
2023-06-01T10:53:06.606Z,3584.00
2023-06-01T10:54:06.636Z,3528.00
2023-06-01T10:55:06.606Z,3616.00
2023-06-01T10:56:06.571Z,3612.00
2023-06-01T10:57:06.527Z,3612.00
2023-06-01T10:58:06.537Z,3604.00
2023-06-01T10:59:16.527Z,3580.00
2023-06-01T11:00:07.568Z,3504.00
2023-06-01T11:01:06.725Z,3324.00
2023-06-01T11:02:06.566Z,3440.00
2023-06-01T11:03:06.589Z,3320.00
2023-06-01T11:04:06.500Z,3276.00
2023-06-01T11:05:06.507Z,3312.00
2023-06-01T11:06:07.640Z,3404.00
2023-06-01T11:07:06.403Z,3412.00
2023-06-01T11:08:06.430Z,3296.00
2023-06-01T11:09:06.597Z,3000.00
2023-06-01T11:10:06.396Z,2584.00
2023-06-01T11:11:06.565Z,2220.00
2023-06-01T11:12:06.341Z,2132.00
2023-06-01T11:13:06.363Z,2016.00
2023-06-01T11:14:06.328Z,2076.00
2023-06-01T11:15:06.319Z,2132.00
2023-06-01T11:17:06.290Z,1912.00
2023-06-01T11:18:06.307Z,1888.00
2023-06-01T11:19:06.280Z,2044.00
2023-06-01T11:20:06.243Z,2208.00
2023-06-01T11:21:06.271Z,2024.00
2023-06-01T11:22:06.593Z,2116.00
2023-06-01T11:23:06.201Z,2488.00
2023-06-01T11:24:06.220Z,2712.00
2023-06-01T11:25:06.180Z,2844.00
2023-06-01T11:26:06.165Z,2804.00
2023-06-01T11:27:06.144Z,2804.00
2023-06-01T11:28:06.167Z,3052.00
2023-06-01T11:29:06.145Z,3180.00
2023-06-01T11:30:06.124Z,3236.00
2023-06-01T11:31:06.185Z,3144.00
2023-06-01T11:32:06.164Z,3232.00
2023-06-01T11:33:06.091Z,3080.00
2023-06-01T11:34:06.058Z,2856.00
2023-06-01T11:35:06.040Z,2848.00
2023-06-01T11:36:06.043Z,2424.00
2023-06-01T11:37:06.035Z,2440.00
2023-06-01T11:38:06.020Z,2284.00
2023-06-01T11:39:16.715Z,2096.00
2023-06-01T11:40:07.000Z,2388.00
2023-06-01T11:41:05.981Z,2232.00
2023-06-01T11:42:05.978Z,2272.00
2023-06-01T11:43:05.973Z,2432.00
2023-06-01T11:44:05.978Z,2412.00
2023-06-01T11:45:05.952Z,2632.00
2023-06-01T11:46:17.769Z,2676.00
2023-06-01T11:47:07.107Z,2892.00
2023-06-01T11:48:05.987Z,2900.00
2023-06-01T11:49:06.083Z,3052.00
2023-06-01T11:50:05.869Z,3036.00
2023-06-01T11:51:05.848Z,2832.00
2023-06-01T11:52:05.859Z,2916.00
2023-06-01T11:53:05.889Z,2872.00
2023-06-01T11:54:05.794Z,2920.00
2023-06-01T11:55:05.805Z,2940.00
2023-06-01T11:56:05.779Z,3004.00
2023-06-01T11:57:05.769Z,3060.00
2023-06-01T11:58:05.744Z,3032.00
2023-06-01T11:59:05.733Z,2984.00
2023-06-01T12:00:05.718Z,3040.00
2023-06-01T12:01:05.978Z,3016.00
2023-06-01T12:02:09.622Z,2976.00
2023-06-01T12:03:05.747Z,2944.00
2023-06-01T12:04:05.810Z,2944.00
2023-06-01T12:05:05.644Z,2932.00
2023-06-01T12:06:05.654Z,2936.00
2023-06-01T12:07:05.668Z,2932.00
2023-06-01T12:08:05.620Z,2928.00
2023-06-01T12:09:05.626Z,2916.00
2023-06-01T12:10:05.585Z,2892.00
2023-06-01T12:11:05.655Z,2892.00
2023-06-01T12:12:05.575Z,2888.00
2023-06-01T12:13:05.542Z,2892.00
2023-06-01T12:14:05.565Z,2884.00
2023-06-01T12:15:05.526Z,2860.00
2023-06-01T12:16:20.716Z,2832.00
2023-06-01T12:17:06.618Z,2816.00
2023-06-01T12:18:05.713Z,2804.00
2023-06-01T12:19:05.491Z,2792.00